createdAt,value
2018-12-26T00:00:34.711Z,100715.71
2018-12-26T00:03:03.176Z,100710.48
2018-12-26T00:05:32.925Z,100718.76
2018-12-26T00:08:01.698Z,100710.92
2018-12-26T00:10:30.362Z,100706.56
2018-12-26T00:12:58.839Z,100702.65
2018-12-26T00:15:30.473Z,100711.36
2018-12-26T00:17:58.956Z,100708.31
2018-12-26T00:20:27.552Z,100715.71
2018-12-26T00:22:56.028Z,100713.97
2018-12-26T00:25:24.513Z,100709.61
2018-12-26T00:27:53.015Z,100726.59
2018-12-26T00:30:22.418Z,100722.24
2018-12-26T00:32:51.076Z,100721.80
2018-12-26T00:35:19.550Z,100703.12
2018-12-26T00:37:47.999Z,100718.79
2018-12-26T00:40:16.626Z,100710.08
2018-12-26T00:42:45.094Z,100717.05
2018-12-26T00:45:14.027Z,100714.87
2018-12-26T00:47:42.497Z,100698.77
2018-12-26T00:50:10.986Z,100695.72
2018-12-26T00:52:40.425Z,100704.86
2018-12-26T00:55:08.910Z,100697.45
2018-12-26T00:57:37.666Z,100695.72
2018-12-26T01:00:08.779Z,100687.05
2018-12-26T01:02:37.262Z,100695.75
2018-12-26T01:05:05.950Z,100690.95
2018-12-26T01:07:34.496Z,100692.70
2018-12-26T01:10:05.353Z,100694.00
2018-12-26T01:12:33.850Z,100692.25
2018-12-26T01:15:05.392Z,100691.83
2018-12-26T01:17:33.915Z,100683.12
2018-12-26T01:20:02.491Z,100683.12
2018-12-26T01:22:31.418Z,100674.84
2018-12-26T01:24:59.893Z,100673.98
2018-12-26T01:27:28.480Z,100671.80
2018-12-26T01:29:57.026Z,100675.72
2018-12-26T01:32:25.622Z,100674.41
2018-12-26T01:34:54.094Z,100667.45
2018-12-26T01:37:22.718Z,100663.97
2018-12-26T01:39:51.205Z,100653.99
2018-12-26T01:42:19.848Z,100667.48
2018-12-26T01:44:48.424Z,100667.48
2018-12-26T01:47:16.894Z,100674.87
2018-12-26T01:49:45.352Z,100663.13
2018-12-26T01:52:13.899Z,100667.48
2018-12-26T01:54:42.374Z,100670.95
2018-12-26T01:57:10.923Z,100662.25
2018-12-26T01:59:41.465Z,100663.13
2018-12-26T02:02:09.926Z,100663.55
2018-12-26T02:04:38.427Z,100663.13
2018-12-26T02:07:07.879Z,100679.22
2018-12-26T02:09:36.473Z,100683.13
2018-12-26T02:12:05.023Z,100683.13
2018-12-26T02:14:33.479Z,100650.94
2018-12-26T02:17:02.173Z,100665.73
2018-12-26T02:19:30.639Z,100655.30
2018-12-26T02:21:59.467Z,100655.30
2018-12-26T02:24:27.928Z,100658.34
2018-12-26T02:26:56.395Z,100651.38
2018-12-26T02:29:24.975Z,100657.47
2018-12-26T02:31:53.460Z,100646.16
2018-12-26T02:34:22.017Z,100652.69
2018-12-26T02:36:51.439Z,100640.50
2018-12-26T02:39:20.060Z,100661.39
2018-12-26T02:41:48.499Z,100652.25
2018-12-26T02:44:16.968Z,100635.72
2018-12-26T02:46:45.657Z,100631.34
2018-12-26T02:49:14.124Z,100631.77
2018-12-26T02:51:43.598Z,100642.22
2018-12-26T02:54:12.090Z,100630.03
2018-12-26T02:56:47.460Z,100623.07
2018-12-26T02:59:11.104Z,100617.84
2018-12-26T03:01:39.595Z,100617.84
2018-12-26T03:04:08.113Z,100637.86
2018-12-26T03:06:36.719Z,100630.90
2018-12-26T03:09:07.328Z,100630.90
2018-12-26T03:11:36.250Z,100633.52
2018-12-26T03:14:04.777Z,100633.52
2018-12-26T03:16:33.327Z,100627.38
2018-12-26T03:19:01.843Z,100608.23
2018-12-26T03:21:31.321Z,100607.80
2018-12-26T03:23:59.948Z,100602.57
2018-12-26T03:26:28.604Z,100603.00
2018-12-26T03:28:57.123Z,100589.08
2018-12-26T03:31:25.681Z,100606.92
2018-12-26T03:33:54.299Z,100612.14
2018-12-26T03:36:22.886Z,100595.59
2018-12-26T03:38:51.533Z,100602.56
2018-12-26T03:41:20.584Z,100591.24
2018-12-26T03:43:49.487Z,100602.99
2018-12-26T03:46:18.798Z,100584.70
2018-12-26T03:48:47.333Z,100595.98
2018-12-26T03:51:16.161Z,100606.91
2018-12-26T03:53:44.739Z,100594.25
2018-12-26T03:56:13.439Z,100584.66
2018-12-26T03:58:42.131Z,100584.23
2018-12-26T04:01:10.655Z,100582.93
2018-12-26T04:03:39.425Z,100581.62
2018-12-26T04:06:08.023Z,100598.16
2018-12-26T04:08:36.614Z,100586.84
2018-12-26T04:11:05.284Z,100592.50
2018-12-26T04:13:33.876Z,100576.39
2018-12-26T04:16:02.622Z,100573.33
2018-12-26T04:18:31.205Z,100546.33
2018-12-26T04:21:00.170Z,100555.04
2018-12-26T04:23:29.061Z,100554.55
2018-12-26T04:25:57.659Z,100554.55
2018-12-26T04:28:26.730Z,100560.64
2018-12-26T04:30:56.195Z,100559.76
2018-12-26T04:33:24.719Z,100570.65
2018-12-26T04:35:53.521Z,100564.98
2018-12-26T04:38:22.055Z,100571.06
2018-12-26T04:40:52.651Z,100569.32
2018-12-26T04:43:21.264Z,100588.92
2018-12-26T04:45:49.920Z,100581.91
2018-12-26T04:48:18.616Z,100567.95
2018-12-26T04:50:47.256Z,100571.00
2018-12-26T04:53:15.769Z,100574.06
2018-12-26T04:55:44.326Z,100566.22
2018-12-26T04:58:12.955Z,100576.66
2018-12-26T05:00:41.536Z,100584.06
2018-12-26T05:03:10.233Z,100578.41
2018-12-26T05:05:39.775Z,100577.96
2018-12-26T05:08:08.284Z,100569.24
2018-12-26T05:10:37.019Z,100564.00
2018-12-26T05:13:05.617Z,100577.50
2018-12-26T05:15:34.160Z,100579.20
2018-12-26T05:18:07.216Z,100568.73
2018-12-26T05:20:35.895Z,100573.52
2018-12-26T05:23:05.706Z,100561.75
2018-12-26T05:25:34.375Z,100562.63
2018-12-26T05:28:03.074Z,100563.91
2018-12-26T05:30:31.721Z,100558.25
2018-12-26T05:33:00.367Z,100568.70
2018-12-26T05:35:30.106Z,100560.86
2018-12-26T05:37:58.669Z,100568.25
2018-12-26T05:40:27.206Z,100582.63
2018-12-26T05:42:55.847Z,100571.23
2018-12-26T05:45:24.365Z,100559.03
2018-12-26T05:47:53.122Z,100549.89
2018-12-26T05:50:21.662Z,100557.28
2018-12-26T05:52:50.191Z,100566.87
2018-12-26T05:55:18.777Z,100570.36
2018-12-26T05:57:47.321Z,100579.50
2018-12-26T06:00:15.836Z,100572.08
2018-12-26T06:02:44.500Z,100580.34
2018-12-26T06:05:13.130Z,100574.22
2018-12-26T06:07:41.668Z,100577.22
2018-12-26T06:10:10.418Z,100570.23
2018-12-26T06:12:38.940Z,100578.96
2018-12-26T06:15:07.532Z,100566.32
2018-12-26T06:17:36.217Z,100587.67
2018-12-26T06:20:05.470Z,100599.02
2018-12-26T06:22:34.123Z,100592.95
2018-12-26T06:25:02.748Z,100588.12
2018-12-26T06:27:34.506Z,100612.97
2018-12-26T06:30:03.730Z,100596.39
2018-12-26T06:32:33.184Z,100610.77
2018-12-26T06:35:01.710Z,100609.47
2018-12-26T06:37:30.302Z,100621.67
2018-12-26T06:39:58.828Z,100621.67
2018-12-26T06:42:27.469Z,100612.08
2018-12-26T06:44:56.058Z,100629.51
2018-12-26T06:47:24.611Z,100641.28
2018-12-26T06:49:54.161Z,100632.12
2018-12-26T06:52:22.800Z,100621.20
2018-12-26T06:54:51.423Z,100631.23
2018-12-26T06:57:20.021Z,100622.50
2018-12-26T06:59:48.572Z,100608.98
2018-12-26T07:02:17.996Z,100612.91
2018-12-26T07:04:46.578Z,100635.58
2018-12-26T07:07:16.019Z,100631.21
2018-12-26T07:09:44.537Z,100634.22
2018-12-26T07:12:13.022Z,100633.83
2018-12-26T07:14:41.547Z,100624.23
2018-12-26T07:17:10.084Z,100637.27
2018-12-26T07:19:38.593Z,100634.66
2018-12-26T07:22:07.101Z,100625.50
2018-12-26T07:24:35.593Z,100624.67
2018-12-26T07:27:05.188Z,100626.36
2018-12-26T07:29:33.657Z,100611.97
2018-12-26T07:32:02.119Z,100610.21
2018-12-26T07:34:30.695Z,100629.41
2018-12-26T07:36:59.194Z,100632.45
2018-12-26T07:39:27.663Z,100624.60
2018-12-26T07:41:56.187Z,100634.63
2018-12-26T07:44:24.645Z,100635.92
2018-12-26T07:46:53.388Z,100645.49
2018-12-26T07:49:21.939Z,100629.36
2018-12-26T07:51:50.384Z,100632.41
2018-12-26T07:54:20.723Z,100636.34
2018-12-26T07:56:49.091Z,100635.47
2018-12-26T07:59:17.680Z,100643.73
2018-12-26T08:01:46.173Z,100623.63
2018-12-26T08:04:14.651Z,100617.95
2018-12-26T08:06:43.168Z,100617.13
2018-12-26T08:09:11.635Z,100632.39
2018-12-26T08:11:40.160Z,100627.16
2018-12-26T08:14:09.636Z,100644.17
2018-12-26T08:16:38.190Z,100621.49
2018-12-26T08:19:06.724Z,100615.82
2018-12-26T08:21:35.265Z,100627.61
2018-12-26T08:24:03.848Z,100619.33
2018-12-26T08:26:32.362Z,100636.79
2018-12-26T08:29:00.857Z,100622.84
2018-12-26T08:31:29.413Z,100635.50
2018-12-26T08:34:03.815Z,100630.72
2018-12-26T08:36:32.289Z,100620.25
2018-12-26T08:39:00.743Z,100631.58
2018-12-26T08:41:29.252Z,100630.26
2018-12-26T08:44:04.134Z,100630.70
2018-12-26T08:46:32.902Z,100641.16
2018-12-26T08:49:01.507Z,100648.58
2018-12-26T08:51:30.082Z,100637.23
2018-12-26T08:53:58.665Z,100655.55
2018-12-26T08:56:27.146Z,100642.02
2018-12-26T08:58:55.645Z,100638.97
2018-12-26T09:01:24.164Z,100637.20
2018-12-26T09:03:52.804Z,100645.48
2018-12-26T09:06:21.885Z,100646.74
2018-12-26T09:08:50.553Z,100633.66
2018-12-26T09:11:19.100Z,100638.88
2018-12-26T09:13:47.555Z,100635.83
2018-12-26T09:16:16.092Z,100632.34
2018-12-26T09:18:44.557Z,100643.23
2018-12-26T09:21:13.144Z,100644.96
2018-12-26T09:23:41.613Z,100638.42
2018-12-26T09:26:10.152Z,100648.02
2018-12-26T09:28:43.778Z,100620.99
2018-12-26T09:31:09.919Z,100639.28
2018-12-26T09:33:39.002Z,100635.79
2018-12-26T09:36:07.593Z,100646.69
2018-12-26T09:38:36.076Z,100634.91
2018-12-26T09:41:04.653Z,100650.19
2018-12-26T09:43:33.124Z,100625.75
2018-12-26T09:46:01.788Z,100621.39
2018-12-26T09:48:30.236Z,100618.77
2018-12-26T09:50:58.703Z,100623.13
2018-12-26T09:53:27.232Z,100629.23
2018-12-26T09:55:56.705Z,100626.63
2018-12-26T09:58:25.239Z,100629.26
2018-12-26T10:00:53.718Z,100629.26
2018-12-26T10:03:22.414Z,100615.73
2018-12-26T10:05:50.977Z,100623.58
2018-12-26T10:08:20.333Z,100605.24
2018-12-26T10:10:48.929Z,100605.22
2018-12-26T10:13:17.405Z,100617.88
2018-12-26T10:15:46.209Z,100637.08
2018-12-26T10:18:15.718Z,100627.48
2018-12-26T10:20:44.255Z,100615.71
2018-12-26T10:23:12.888Z,100615.71
2018-12-26T10:25:42.324Z,100622.69
2018-12-26T10:28:10.796Z,100606.97
2018-12-26T10:30:39.879Z,100627.48
2018-12-26T10:33:08.447Z,100619.19
2018-12-26T10:35:36.927Z,100620.92
2018-12-26T10:38:07.579Z,100616.94
2018-12-26T10:40:36.197Z,100627.45
2018-12-26T10:43:04.774Z,100606.53
2018-12-26T10:45:33.252Z,100599.13
2018-12-26T10:48:01.885Z,100591.30
2018-12-26T10:50:30.370Z,100603.08
2018-12-26T10:52:58.989Z,100600.92
2018-12-26T10:55:27.505Z,100590.45
2018-12-26T10:57:57.013Z,100604.85
2018-12-26T11:00:25.712Z,100580.41
2018-12-26T11:02:54.371Z,100589.55
2018-12-26T11:05:29.459Z,100574.28
2018-12-26T11:07:53.478Z,100581.70
2018-12-26T11:10:21.958Z,100571.66
2018-12-26T11:12:50.467Z,100577.33
2018-12-26T11:15:19.975Z,100565.53
2018-12-26T11:17:49.618Z,100580.35
2018-12-26T11:20:18.131Z,100554.62
2018-12-26T11:22:46.621Z,100576.88
2018-12-26T11:25:15.124Z,100572.95
2018-12-26T11:27:43.596Z,100570.33
2018-12-26T11:30:12.254Z,100577.31
2018-12-26T11:32:40.723Z,100583.85
2018-12-26T11:35:09.408Z,100591.71
2018-12-26T11:37:38.110Z,100579.50
2018-12-26T11:40:09.271Z,100593.03
2018-12-26T11:42:38.058Z,100590.87
2018-12-26T11:45:15.556Z,100613.99
2018-12-26T11:47:48.948Z,100590.87
2018-12-26T11:50:17.531Z,100584.33
2018-12-26T11:52:46.057Z,100575.58
2018-12-26T11:55:14.677Z,100594.80
2018-12-26T11:57:43.139Z,100586.96
2018-12-26T12:00:11.678Z,100590.47
2018-12-26T12:02:40.412Z,100589.17
2018-12-26T12:05:08.869Z,100583.94
2018-12-26T12:07:37.423Z,100587.03
2018-12-26T12:10:06.988Z,100596.20
2018-12-26T12:12:35.457Z,100601.45
2018-12-26T12:15:04.374Z,100589.67
2018-12-26T12:17:33.020Z,100591.86
2018-12-26T12:20:01.586Z,100605.80
2018-12-26T12:22:30.147Z,100605.82
2018-12-26T12:24:58.622Z,100597.56
2018-12-26T12:27:27.224Z,100595.81
2018-12-26T12:29:55.765Z,100601.05
2018-12-26T12:32:24.382Z,100614.56
2018-12-26T12:34:53.027Z,100618.93
2018-12-26T12:37:21.660Z,100630.29
2018-12-26T12:39:52.345Z,100619.00
2018-12-26T12:42:22.806Z,100610.28
2018-12-26T12:44:51.487Z,100587.17
2018-12-26T12:47:20.025Z,100612.05
2018-12-26T12:49:48.754Z,100622.08
2018-12-26T12:52:17.330Z,100617.73
2018-12-26T12:54:45.969Z,100610.31
2018-12-26T12:57:14.568Z,100620.78
2018-12-26T12:59:44.898Z,100619.03
2018-12-26T13:02:13.612Z,100612.05
2018-12-26T13:04:43.132Z,100618.14
2018-12-26T13:07:11.597Z,100597.64
2018-12-26T13:09:44.597Z,100620.74
2018-12-26T13:12:13.141Z,100617.65
2018-12-26T13:14:41.870Z,100600.24
2018-12-26T13:17:10.331Z,100600.20
2018-12-26T13:19:38.818Z,100609.35
2018-12-26T13:22:08.352Z,100613.27
2018-12-26T13:24:36.992Z,100614.14
2018-12-26T13:27:05.568Z,100642.92
2018-12-26T13:29:34.125Z,100628.53
2018-12-26T13:32:02.912Z,100620.25
2018-12-26T13:34:31.370Z,100631.59
2018-12-26T13:36:59.846Z,100625.93
2018-12-26T13:39:30.333Z,100622.02
2018-12-26T13:41:58.568Z,100625.55
2018-12-26T13:44:27.295Z,100645.61
2018-12-26T13:46:56.750Z,100646.05
2018-12-26T13:49:25.232Z,100649.98
2018-12-26T13:51:55.254Z,100637.33
2018-12-26T13:54:23.727Z,100629.91
2018-12-26T13:56:52.262Z,100632.10
2018-12-26T13:59:21.058Z,100639.08
2018-12-26T14:01:49.559Z,100639.09
2018-12-26T14:04:18.077Z,100639.97
2018-12-26T14:06:46.570Z,100638.67
2018-12-26T14:09:15.115Z,100636.50
2018-12-26T14:11:43.582Z,100636.98
2018-12-26T14:14:12.287Z,100639.61
2018-12-26T14:16:40.805Z,100640.48
2018-12-26T14:19:09.313Z,100646.15
2018-12-26T14:21:38.052Z,100645.72
2018-12-26T14:24:06.558Z,100647.05
2018-12-26T14:26:35.062Z,100640.53
2018-12-26T14:29:03.627Z,100644.06
2018-12-26T14:31:32.100Z,100643.20
2018-12-26T14:34:00.631Z,100660.20
2018-12-26T14:36:29.115Z,100648.43
2018-12-26T14:38:57.780Z,100639.28
2018-12-26T14:41:26.388Z,100653.23
2018-12-26T14:43:54.958Z,100654.55
2018-12-26T14:46:23.466Z,100661.95
2018-12-26T14:48:51.946Z,100655.00
2018-12-26T14:51:26.534Z,100658.53
2018-12-26T14:53:52.836Z,100668.13
2018-12-26T14:56:22.520Z,100655.50
2018-12-26T14:58:53.131Z,100655.95
2018-12-26T15:01:26.417Z,100663.36
2018-12-26T15:03:55.668Z,100665.14
2018-12-26T15:06:24.227Z,100662.53
2018-12-26T15:08:52.705Z,100674.73
2018-12-26T15:11:21.292Z,100667.33
2018-12-26T15:13:49.825Z,100663.84
2018-12-26T15:16:18.346Z,100668.20
2018-12-26T15:18:47.425Z,100671.25
2018-12-26T15:21:16.133Z,100669.50
2018-12-26T15:23:44.602Z,100676.47
2018-12-26T15:26:13.085Z,100678.66
2018-12-26T15:28:41.724Z,100666.46
2018-12-26T15:31:10.227Z,100675.61
2018-12-26T15:33:38.847Z,100675.61
2018-12-26T15:36:07.326Z,100669.08
2018-12-26T15:38:35.805Z,100673.43
2018-12-26T15:41:04.491Z,100673.43
2018-12-26T15:43:32.966Z,100678.22
2018-12-26T15:46:01.610Z,100674.73
2018-12-26T15:48:30.084Z,100669.95
2018-12-26T15:50:58.804Z,100673.44
2018-12-26T15:53:29.365Z,100658.23
2018-12-26T15:55:58.765Z,100677.78
2018-12-26T15:58:27.252Z,100676.48
2018-12-26T16:00:55.923Z,100671.73
2018-12-26T16:03:24.400Z,100676.05
2018-12-26T16:05:52.956Z,100670.42
2018-12-26T16:08:21.703Z,100659.10
2018-12-26T16:10:50.186Z,100666.06
2018-12-26T16:13:18.675Z,100661.71
2018-12-26T16:15:47.216Z,100662.58
2018-12-26T16:18:15.688Z,100666.06
2018-12-26T16:23:19.458Z,100670.38
2018-12-26T16:25:48.013Z,100680.44
2018-12-26T16:28:16.714Z,100663.89
2018-12-26T16:30:46.225Z,100674.78
2018-12-26T16:33:14.961Z,100668.25
2018-12-26T16:35:43.489Z,100669.55
2018-12-26T16:38:12.030Z,100660.41
2018-12-26T16:40:40.688Z,100672.17
2018-12-26T16:43:09.237Z,100666.06
2018-12-26T16:45:37.712Z,100684.35
2018-12-26T16:48:06.491Z,100675.17
2018-12-26T16:50:35.038Z,100685.63
2018-12-26T16:53:03.888Z,100676.05
2018-12-26T16:55:32.599Z,100681.70
2018-12-26T16:58:01.072Z,100681.27
2018-12-26T17:00:31.168Z,100687.37
2018-12-26T17:02:59.674Z,100686.50
2018-12-26T17:05:29.306Z,100688.23
2018-12-26T17:07:58.872Z,100685.63
2018-12-26T17:10:27.369Z,100693.03
2018-12-26T17:12:55.922Z,100696.52
2018-12-26T17:15:24.482Z,100690.42
2018-12-26T17:17:53.180Z,100688.67
2018-12-26T17:20:21.908Z,100696.52
2018-12-26T17:22:50.453Z,100703.48
2018-12-26T17:25:19.132Z,100711.75
2018-12-26T17:27:47.664Z,100697.81
2018-12-26T17:30:16.445Z,100700.43
2018-12-26T17:32:44.997Z,100700.86
2018-12-26T17:35:13.758Z,100713.06
2018-12-26T17:37:42.335Z,100710.88
2018-12-26T17:40:12.175Z,100718.28
2018-12-26T17:42:40.808Z,100715.23
2018-12-26T17:45:09.550Z,100711.75
2018-12-26T17:47:38.166Z,100720.46
2018-12-26T17:50:38.809Z,100726.99
2018-12-26T17:53:09.599Z,100721.77
2018-12-26T17:55:56.662Z,100718.72
2018-12-26T17:58:28.190Z,100717.84
2018-12-26T18:01:12.934Z,100721.77
2018-12-26T18:03:41.755Z,100715.23
2018-12-26T18:06:10.310Z,100720.46
2018-12-26T18:08:38.898Z,100716.97
2018-12-26T18:11:07.388Z,100730.04
2018-12-26T18:13:35.968Z,100721.77
2018-12-26T18:16:04.572Z,100717.84
2018-12-26T18:18:33.298Z,100727.43
2018-12-26T18:21:02.736Z,100727.43
2018-12-26T18:23:31.219Z,100719.16
2018-12-26T18:25:59.766Z,100726.13
2018-12-26T18:28:28.311Z,100725.25
2018-12-26T18:30:56.831Z,100721.33
2018-12-26T18:33:25.309Z,100716.97
2018-12-26T18:35:53.937Z,100726.55
2018-12-26T18:38:22.408Z,100730.03
2018-12-26T18:40:50.884Z,100734.36
2018-12-26T18:43:19.580Z,100736.97
2018-12-26T18:45:48.129Z,100722.59
2018-12-26T18:48:16.600Z,100721.29
2018-12-26T18:50:45.762Z,100716.09
2018-12-26T18:53:14.323Z,100715.23
2018-12-26T18:55:43.949Z,100734.39
2018-12-26T18:58:12.517Z,100726.55
2018-12-26T19:00:41.002Z,100725.25
2018-12-26T19:03:09.526Z,100731.78
2018-12-26T19:05:38.110Z,100729.60
2018-12-26T19:08:06.789Z,100722.63
2018-12-26T19:10:35.447Z,100730.88
2018-12-26T19:13:05.913Z,100726.12
2018-12-26T19:15:34.495Z,100732.66
2018-12-26T19:18:03.034Z,100737.41
2018-12-26T19:20:31.698Z,100730.44
2018-12-26T19:23:00.271Z,100734.80
2018-12-26T19:25:28.874Z,100726.52
2018-12-26T19:27:57.367Z,100729.13
2018-12-26T19:30:26.016Z,100733.05
2018-12-26T19:32:54.516Z,100735.66
2018-12-26T19:35:23.139Z,100734.79
2018-12-26T19:37:54.861Z,100726.52
2018-12-26T19:40:23.417Z,100736.09
2018-12-26T19:42:51.896Z,100730.44
2018-12-26T19:45:20.514Z,100727.39
2018-12-26T19:47:50.109Z,100726.95
2018-12-26T19:50:18.920Z,100727.39
2018-12-26T19:52:47.525Z,100737.84
2018-12-26T19:55:16.086Z,100734.79
2018-12-26T19:57:44.759Z,100737.84
2018-12-26T20:00:13.470Z,100731.73
2018-12-26T20:02:42.316Z,100739.58
2018-12-26T20:05:10.866Z,100733.92
2018-12-26T20:07:40.399Z,100730.87
2018-12-26T20:10:10.478Z,100731.73
2018-12-26T20:12:39.048Z,100733.48
2018-12-26T20:15:08.331Z,100734.35
2018-12-26T20:17:36.809Z,100731.73
2018-12-26T20:20:09.046Z,100730.87
2018-12-26T20:22:37.596Z,100726.95
2018-12-26T20:25:06.435Z,100732.61
2018-12-26T20:27:35.100Z,100729.56
2018-12-26T20:30:04.419Z,100728.69
2018-12-26T20:32:33.046Z,100727.38
2018-12-26T20:35:01.617Z,100724.77
2018-12-26T20:37:30.220Z,100734.35
2018-12-26T20:39:58.889Z,100736.53
2018-12-26T20:42:27.361Z,100724.77
2018-12-26T20:44:55.938Z,100728.69
2018-12-26T20:47:25.255Z,100730.43
2018-12-26T20:49:53.910Z,100729.56
2018-12-26T20:52:22.552Z,100733.48
2018-12-26T20:54:51.239Z,100735.22
2018-12-26T20:57:19.870Z,100732.61
2018-12-26T20:59:48.710Z,100736.97
2018-12-26T21:02:17.204Z,100739.58
2018-12-26T21:04:45.775Z,100736.53
2018-12-26T21:07:14.392Z,100732.61
2018-12-26T21:09:42.970Z,100734.78
2018-12-26T21:12:12.473Z,100731.30
2018-12-26T21:14:40.971Z,100725.63
2018-12-26T21:17:09.683Z,100729.55
2018-12-26T21:19:38.241Z,100729.13
2018-12-26T21:22:07.681Z,100725.63
2018-12-26T21:24:36.368Z,100727.38
2018-12-26T21:27:05.125Z,100719.09
2018-12-26T21:29:33.911Z,100724.77
2018-12-26T21:32:02.552Z,100728.68
2018-12-26T21:34:31.029Z,100735.22
2018-12-26T21:36:59.559Z,100735.21
2018-12-26T21:39:28.161Z,100728.64
2018-12-26T21:41:57.900Z,100725.59
2018-12-26T21:44:26.437Z,100738.22
2018-12-26T21:46:54.899Z,100735.17
2018-12-26T21:49:24.483Z,100734.73
2018-12-26T21:51:53.057Z,100729.06
2018-12-26T21:54:21.739Z,100731.69
2018-12-26T21:56:50.287Z,100732.11
2018-12-26T21:59:18.765Z,100728.20
2018-12-26T22:01:47.416Z,100721.66
2018-12-26T22:04:17.635Z,100724.27
2018-12-26T22:06:46.326Z,100730.81
2018-12-26T22:09:14.810Z,100720.35
2018-12-26T22:11:43.303Z,100727.32
2018-12-26T22:14:11.822Z,100725.58
2018-12-26T22:16:41.342Z,100726.88
2018-12-26T22:19:10.084Z,100715.55
2018-12-26T22:21:38.735Z,100720.34
2018-12-26T22:24:07.239Z,100714.24
2018-12-26T22:26:43.025Z,100720.78
2018-12-26T22:29:06.474Z,100712.50
2018-12-26T22:31:35.026Z,100711.20
2018-12-26T22:34:03.488Z,100712.06
2018-12-26T22:36:32.171Z,100705.96
2018-12-26T22:39:00.695Z,100709.02
2018-12-26T22:41:29.297Z,100711.62
2018-12-26T22:43:57.919Z,100712.93
2018-12-26T22:46:27.424Z,100708.57
2018-12-26T22:48:55.902Z,100706.83
2018-12-26T22:51:24.381Z,100696.36
2018-12-26T22:53:52.945Z,100708.56
2018-12-26T22:56:21.418Z,100711.61
2018-12-26T22:58:50.067Z,100712.02
2018-12-26T23:01:18.615Z,100705.47
2018-12-26T23:03:48.071Z,100703.73
2018-12-26T23:06:16.698Z,100701.55
2018-12-26T23:08:45.188Z,100707.20
2018-12-26T23:11:13.807Z,100701.11
2018-12-26T23:13:42.289Z,100702.41
2018-12-26T23:16:10.783Z,100703.72
2018-12-26T23:18:39.298Z,100703.72
2018-12-26T23:21:07.770Z,100707.20
2018-12-26T23:23:36.324Z,100705.89
2018-12-26T23:26:07.184Z,100705.45
2018-12-26T23:28:35.850Z,100699.35
2018-12-26T23:31:05.339Z,100703.28
2018-12-26T23:33:35.116Z,100705.02
2018-12-26T23:36:03.669Z,100697.18
2018-12-26T23:38:32.181Z,100708.94
2018-12-26T23:41:00.845Z,100699.35
2018-12-26T23:43:29.316Z,100701.09
2018-12-26T23:45:57.803Z,100692.81
2018-12-26T23:48:26.344Z,100696.30
2018-12-26T23:50:54.826Z,100694.56
2018-12-26T23:53:23.476Z,100690.63
2018-12-26T23:55:51.955Z,100688.89
2018-12-26T23:58:21.403Z,100687.14
